createdAt,value
2022-09-16T00:00:52.471Z,6.57
2022-09-16T00:03:20.835Z,6.83
2022-09-16T00:05:52.206Z,7.00
2022-09-16T00:08:21.409Z,7.27
2022-09-16T00:10:49.273Z,6.87
2022-09-16T00:13:17.709Z,6.60
2022-09-16T00:15:46.415Z,7.13
2022-09-16T00:18:14.723Z,6.70
2022-09-16T00:20:46.951Z,6.73
2022-09-16T00:23:16.449Z,6.83
2022-09-16T00:25:44.240Z,7.07
2022-09-16T00:28:12.017Z,7.20
2022-09-16T00:30:39.808Z,5.80
2022-09-16T00:33:07.526Z,6.13
2022-09-16T00:35:35.591Z,6.00
2022-09-16T00:38:03.304Z,5.40
2022-09-16T00:40:32.503Z,5.90
2022-09-16T00:43:01.070Z,6.37
2022-09-16T00:45:31.658Z,6.23
2022-09-16T00:48:02.707Z,6.57
2022-09-16T00:50:38.304Z,5.83
2022-09-16T00:53:08.342Z,6.20
2022-09-16T00:55:39.633Z,6.77
2022-09-16T00:58:14.281Z,7.07
2022-09-16T01:00:43.834Z,6.40
2022-09-16T01:03:11.727Z,6.80
2022-09-16T01:05:40.463Z,6.20
2022-09-16T01:08:08.220Z,5.77
2022-09-16T01:10:37.390Z,6.60
2022-09-16T01:13:09.249Z,6.37
2022-09-16T01:15:46.034Z,6.43
2022-09-16T01:18:25.392Z,6.47
2022-09-16T01:21:27.088Z,6.80
2022-09-16T01:24:35.625Z,7.60
2022-09-16T01:27:42.337Z,6.93
2022-09-16T01:30:41.403Z,6.50
2022-09-16T01:33:14.948Z,6.30
2022-09-16T01:36:03.456Z,6.40
2022-09-16T01:38:48.502Z,5.57
2022-09-16T01:41:24.173Z,6.63
2022-09-16T01:44:00.077Z,7.47
2022-09-16T01:46:41.916Z,7.93
2022-09-16T01:49:19.324Z,8.20
2022-09-16T01:51:53.280Z,7.70
2022-09-16T01:54:28.418Z,7.37
2022-09-16T01:57:03.482Z,8.03
2022-09-16T01:59:39.449Z,8.40
2022-09-16T02:02:14.558Z,8.47
2022-09-16T02:04:48.900Z,8.40
2022-09-16T02:07:19.186Z,7.97
2022-09-16T02:09:51.907Z,8.33
2022-09-16T02:12:23.567Z,8.43
2022-09-16T02:14:55.386Z,9.70
2022-09-16T02:17:26.478Z,9.07
2022-09-16T02:19:58.065Z,9.67
2022-09-16T02:22:30.310Z,9.27
2022-09-16T02:25:01.292Z,9.23
2022-09-16T02:27:31.496Z,9.07
2022-09-16T02:30:03.760Z,9.20
2022-09-16T02:32:37.683Z,9.27
2022-09-16T02:35:08.309Z,9.30
2022-09-16T02:37:41.658Z,9.13
2022-09-16T02:40:16.414Z,10.03
2022-09-16T02:42:44.307Z,8.77
2022-09-16T02:45:13.255Z,8.77
2022-09-16T02:47:53.616Z,9.63
2022-09-16T02:50:29.319Z,9.43
2022-09-16T02:53:02.605Z,9.23
2022-09-16T02:55:38.862Z,8.80
2022-09-16T02:58:07.340Z,8.80
2022-09-16T03:00:40.131Z,9.20
2022-09-16T03:03:09.867Z,9.33
2022-09-16T03:05:37.726Z,9.60
2022-09-16T03:08:07.203Z,8.93
2022-09-16T03:10:43.639Z,9.20
2022-09-16T03:13:17.260Z,8.83
2022-09-16T03:15:57.809Z,9.00
2022-09-16T03:18:45.541Z,9.23
2022-09-16T03:21:18.440Z,8.67
2022-09-16T03:23:53.483Z,9.13
2022-09-16T03:26:28.833Z,7.67
2022-09-16T03:29:08.545Z,8.03
2022-09-16T03:31:41.538Z,8.17
2022-09-16T03:34:18.321Z,8.63
2022-09-16T03:36:48.802Z,8.03
2022-09-16T03:39:17.407Z,7.97
2022-09-16T03:41:46.014Z,7.83
2022-09-16T03:44:13.886Z,8.43
2022-09-16T03:46:41.703Z,7.60
2022-09-16T03:49:11.586Z,8.20
2022-09-16T03:51:39.368Z,8.17
2022-09-16T03:54:07.088Z,7.77
2022-09-16T03:56:34.841Z,7.57
2022-09-16T03:59:02.582Z,7.27
2022-09-16T04:01:30.321Z,7.73
2022-09-16T04:03:58.142Z,7.87
2022-09-16T04:06:27.213Z,7.23
2022-09-16T04:08:55.031Z,7.03
2022-09-16T04:11:22.778Z,7.30
2022-09-16T04:13:50.516Z,6.83
2022-09-16T04:16:21.954Z,6.50
2022-09-16T04:18:50.175Z,7.20
2022-09-16T04:21:18.724Z,6.90
2022-09-16T04:23:48.916Z,7.23
2022-09-16T04:26:17.879Z,6.67
2022-09-16T04:28:46.834Z,7.00
2022-09-16T04:31:16.771Z,6.83
2022-09-16T04:33:44.565Z,7.27
2022-09-16T04:36:14.398Z,7.07
2022-09-16T04:38:43.851Z,7.30
2022-09-16T04:41:15.059Z,7.80
2022-09-16T04:43:42.966Z,8.50
2022-09-16T04:46:11.342Z,6.57
2022-09-16T04:48:39.262Z,7.37
2022-09-16T04:51:09.109Z,7.27
2022-09-16T04:53:37.371Z,7.10
2022-09-16T04:56:06.843Z,7.47
2022-09-16T04:58:36.517Z,7.77
2022-09-16T05:01:12.592Z,8.07
2022-09-16T05:03:41.201Z,9.40
2022-09-16T05:06:11.236Z,8.17
2022-09-16T05:08:39.421Z,7.17
2022-09-16T05:11:09.178Z,7.60
2022-09-16T05:13:39.229Z,7.00
2022-09-16T05:16:09.127Z,7.23
2022-09-16T05:18:38.086Z,7.80
2022-09-16T05:21:08.893Z,7.23
2022-09-16T05:23:37.835Z,8.17
2022-09-16T05:26:07.713Z,7.03
2022-09-16T05:28:36.293Z,8.23
2022-09-16T05:31:13.489Z,7.87
2022-09-16T05:33:42.330Z,7.73
2022-09-16T05:36:12.700Z,7.57
2022-09-16T05:38:40.492Z,6.73
2022-09-16T05:41:08.910Z,7.30
2022-09-16T05:43:37.325Z,6.77
2022-09-16T05:46:06.236Z,6.83
2022-09-16T05:48:36.223Z,6.40
2022-09-16T05:51:06.737Z,6.50
2022-09-16T05:53:35.692Z,7.23
2022-09-16T05:56:06.443Z,7.57
2022-09-16T05:58:35.823Z,7.33
2022-09-16T06:01:06.195Z,7.27
2022-09-16T06:03:36.998Z,6.40
2022-09-16T06:06:07.116Z,6.87
2022-09-16T06:08:36.782Z,6.83
2022-09-16T06:11:06.447Z,6.20
2022-09-16T06:13:34.712Z,7.00
2022-09-16T06:16:03.245Z,9.73
2022-09-16T06:18:32.119Z,7.50
2022-09-16T06:21:06.269Z,6.93
2022-09-16T06:23:34.078Z,7.30
2022-09-16T06:26:03.119Z,8.20
2022-09-16T06:28:31.277Z,7.47
2022-09-16T06:31:06.824Z,6.83
2022-09-16T06:33:35.683Z,7.63
2022-09-16T06:36:09.972Z,6.40
2022-09-16T06:38:37.902Z,7.40
2022-09-16T06:41:07.746Z,7.30
2022-09-16T06:43:36.329Z,6.50
2022-09-16T06:46:05.703Z,6.60
2022-09-16T06:48:34.575Z,7.07
2022-09-16T06:51:03.831Z,6.73
2022-09-16T06:53:33.938Z,7.20
2022-09-16T06:56:02.637Z,6.30
2022-09-16T06:58:34.026Z,6.83
2022-09-16T07:01:06.539Z,6.97
2022-09-16T07:03:34.336Z,7.10
2022-09-16T07:06:03.050Z,7.83
2022-09-16T07:08:33.339Z,7.90
2022-09-16T07:11:02.540Z,7.20
2022-09-16T07:13:31.553Z,7.97
2022-09-16T07:16:12.748Z,7.00
2022-09-16T07:18:41.023Z,7.03
2022-09-16T07:21:11.177Z,7.97
2022-09-16T07:23:41.172Z,7.23
2022-09-16T07:26:10.718Z,8.07
2022-09-16T07:28:39.836Z,8.10
2022-09-16T07:31:11.082Z,8.40
2022-09-16T07:33:40.379Z,7.83
2022-09-16T07:36:09.776Z,8.00
2022-09-16T07:38:38.127Z,8.87
2022-09-16T07:41:09.199Z,8.40
2022-09-16T07:43:36.961Z,6.90
2022-09-16T07:46:05.556Z,8.43
2022-09-16T07:48:35.340Z,7.63
2022-09-16T07:51:05.282Z,5.33
2022-09-16T07:53:34.048Z,4.30
2022-09-16T07:56:03.617Z,3.47
2022-09-16T07:58:32.860Z,3.40
2022-09-16T08:01:04.468Z,3.80
2022-09-16T08:03:33.297Z,3.93
2022-09-16T08:06:02.414Z,4.00
2022-09-16T08:08:30.977Z,4.10
2022-09-16T08:10:59.922Z,3.80
2022-09-16T08:13:29.112Z,4.60
2022-09-16T08:16:01.845Z,4.30
2022-09-16T08:18:30.183Z,5.00
2022-09-16T08:20:59.347Z,4.50
2022-09-16T08:23:27.091Z,3.90
2022-09-16T08:25:58.543Z,3.37
2022-09-16T08:28:35.844Z,4.27
2022-09-16T08:31:14.864Z,4.20
2022-09-16T08:33:43.079Z,4.17
2022-09-16T08:36:14.936Z,4.40
2022-09-16T08:38:43.745Z,5.37
2022-09-16T08:41:34.219Z,5.00
2022-09-16T08:44:14.705Z,5.60
2022-09-16T08:46:50.995Z,5.23
2022-09-16T08:49:26.774Z,5.83
2022-09-16T08:51:55.524Z,6.00
2022-09-16T08:54:29.185Z,5.37
2022-09-16T08:57:01.065Z,5.73
2022-09-16T08:59:33.617Z,5.10
2022-09-16T09:02:20.557Z,4.93
2022-09-16T09:04:48.619Z,5.00
2022-09-16T09:07:23.533Z,5.27
2022-09-16T09:10:14.466Z,5.80
2022-09-16T09:12:49.624Z,5.47
2022-09-16T09:15:31.774Z,5.20
2022-09-16T09:18:16.000Z,4.67
2022-09-16T09:20:52.259Z,4.40
2022-09-16T09:23:48.432Z,5.20
2022-09-16T09:26:22.914Z,4.70
2022-09-16T09:29:11.445Z,4.67
2022-09-16T09:31:47.626Z,4.70
2022-09-16T09:34:31.387Z,5.03
2022-09-16T09:37:08.793Z,4.00
2022-09-16T09:39:46.060Z,4.00
2022-09-16T09:42:18.342Z,4.37
2022-09-16T09:44:52.771Z,4.13
2022-09-16T09:47:24.644Z,4.37
2022-09-16T09:49:57.769Z,3.97
2022-09-16T09:52:32.299Z,4.27
2022-09-16T09:55:16.301Z,4.77
2022-09-16T09:57:57.107Z,3.63
2022-09-16T10:00:24.832Z,4.27
2022-09-16T10:02:52.819Z,4.30
2022-09-16T10:05:24.334Z,3.90
2022-09-16T10:07:54.624Z,3.27
2022-09-16T10:10:24.743Z,3.80
2022-09-16T10:12:53.110Z,4.03
2022-09-16T10:15:23.169Z,3.90
2022-09-16T10:17:52.786Z,4.30
2022-09-16T10:20:28.521Z,3.90
2022-09-16T10:23:00.979Z,5.13
2022-09-16T10:25:30.550Z,4.70
2022-09-16T10:28:01.228Z,4.57
2022-09-16T10:30:34.146Z,4.33
2022-09-16T10:33:05.370Z,4.03
2022-09-16T10:35:36.035Z,3.93
2022-09-16T10:38:06.324Z,4.13
2022-09-16T10:40:35.201Z,4.27
2022-09-16T10:43:04.710Z,3.90
2022-09-16T10:45:36.481Z,4.07
2022-09-16T10:48:07.679Z,3.70
2022-09-16T10:50:36.816Z,3.60
2022-09-16T10:53:04.727Z,3.27
2022-09-16T10:55:35.383Z,3.57
2022-09-16T10:58:10.762Z,4.60
2022-09-16T11:00:49.102Z,4.30
2022-09-16T11:03:40.760Z,3.23
2022-09-16T11:06:29.606Z,3.47
2022-09-16T11:09:07.534Z,3.27
2022-09-16T11:11:54.486Z,3.87
2022-09-16T11:14:36.395Z,3.87
2022-09-16T11:17:23.995Z,10.10
2022-09-16T11:20:06.403Z,5.90
2022-09-16T11:22:42.884Z,10.07
2022-09-16T11:25:31.641Z,4.63
2022-09-16T11:28:11.747Z,4.47
2022-09-16T11:30:48.980Z,4.27
2022-09-16T11:33:26.171Z,3.70
2022-09-16T11:36:19.338Z,2.80
2022-09-16T11:39:00.790Z,7.47
2022-09-16T11:41:33.639Z,5.67
2022-09-16T11:44:17.611Z,3.27
2022-09-16T11:46:53.770Z,3.67
2022-09-16T11:49:38.813Z,5.17
2022-09-16T11:52:21.373Z,4.07
2022-09-16T11:55:06.649Z,3.80
2022-09-16T11:57:39.310Z,3.97
2022-09-16T12:00:12.771Z,3.40
2022-09-16T12:02:45.788Z,3.33
2022-09-16T12:05:18.277Z,4.80
2022-09-16T12:07:53.219Z,3.77
2022-09-16T12:10:25.784Z,3.10
2022-09-16T12:12:57.464Z,2.90
2022-09-16T12:15:28.677Z,2.87
2022-09-16T12:17:59.590Z,3.03
2022-09-16T12:20:30.919Z,3.53
2022-09-16T12:23:07.001Z,3.13
2022-09-16T12:25:46.002Z,3.07
2022-09-16T12:28:20.170Z,3.10
2022-09-16T12:30:54.824Z,3.23
2022-09-16T12:33:26.937Z,3.20
2022-09-16T12:35:58.425Z,2.57
2022-09-16T12:38:26.269Z,2.33
2022-09-16T12:41:13.438Z,2.50
2022-09-16T12:44:17.446Z,2.37
2022-09-16T12:47:39.487Z,2.53
2022-09-16T12:50:34.735Z,2.53
2022-09-16T12:53:25.622Z,2.00
2022-09-16T12:56:08.257Z,2.40
2022-09-16T12:58:57.203Z,2.40
2022-09-16T13:01:28.173Z,2.40
2022-09-16T13:03:59.564Z,2.40
2022-09-16T13:06:30.926Z,2.80
2022-09-16T13:09:13.813Z,2.40
2022-09-16T13:14:34.182Z,2.90
2022-09-16T13:17:03.284Z,2.50
2022-09-16T13:19:41.082Z,2.80
2022-09-16T13:22:30.868Z,3.03
2022-09-16T13:25:09.291Z,2.90
2022-09-16T13:27:40.137Z,3.00
2022-09-16T13:30:32.166Z,2.27
2022-09-16T13:33:24.067Z,2.60
2022-09-16T13:36:19.544Z,2.50
2022-09-16T13:38:49.623Z,3.00
2022-09-16T13:41:35.264Z,2.67
2022-09-16T13:44:20.527Z,2.53
2022-09-16T13:46:48.539Z,2.63
2022-09-16T13:49:22.914Z,2.43
2022-09-16T13:51:51.903Z,2.77
2022-09-16T13:54:37.182Z,2.70
2022-09-16T13:57:41.224Z,2.40
2022-09-16T14:00:20.629Z,2.70
2022-09-16T14:03:04.966Z,2.23
2022-09-16T14:05:56.265Z,2.40
2022-09-16T14:08:32.929Z,2.30
2022-09-16T14:11:06.699Z,2.17
2022-09-16T14:13:39.350Z,2.00
2022-09-16T14:16:15.463Z,2.37
2022-09-16T14:18:54.328Z,2.10
2022-09-16T14:21:24.205Z,2.70
2022-09-16T14:23:51.987Z,2.70
2022-09-16T14:26:22.265Z,2.70
2022-09-16T14:28:50.690Z,2.70
2022-09-16T14:31:22.210Z,2.40
2022-09-16T14:33:56.592Z,2.30
2022-09-16T14:36:27.566Z,2.63
2022-09-16T14:38:57.764Z,2.80
2022-09-16T14:41:29.434Z,3.87
2022-09-16T14:44:14.463Z,2.63
2022-09-16T14:46:47.795Z,3.03
2022-09-16T14:49:17.670Z,2.87
2022-09-16T14:51:48.460Z,3.27
2022-09-16T14:54:19.054Z,3.30
2022-09-16T14:56:57.332Z,2.90
2022-09-16T14:59:28.453Z,2.73
2022-09-16T15:02:01.342Z,2.90
2022-09-16T15:04:33.889Z,2.80
2022-09-16T15:07:12.506Z,2.70
2022-09-16T15:09:47.404Z,3.23
2022-09-16T15:12:23.717Z,2.53
2022-09-16T15:14:51.896Z,3.07
2022-09-16T15:17:24.527Z,2.83
2022-09-16T15:19:56.360Z,2.20
2022-09-16T15:22:24.959Z,2.83
2022-09-16T15:24:56.225Z,2.23
2022-09-16T15:27:25.811Z,2.50
2022-09-16T15:29:59.386Z,2.50
2022-09-16T15:32:32.037Z,2.23
2022-09-16T15:35:13.348Z,2.43
2022-09-16T15:37:41.152Z,2.60
2022-09-16T15:40:11.497Z,2.90
2022-09-16T15:42:39.508Z,2.50
2022-09-16T15:45:17.772Z,2.60
2022-09-16T15:47:58.154Z,2.40
2022-09-16T15:50:26.859Z,2.00
2022-09-16T15:53:00.255Z,2.27
2022-09-16T15:55:33.631Z,2.40
2022-09-16T15:58:05.872Z,2.60
2022-09-16T16:01:00.576Z,2.30
2022-09-16T16:03:33.555Z,2.33
2022-09-16T16:06:04.859Z,2.60
2022-09-16T16:08:47.041Z,2.70
2022-09-16T16:11:16.193Z,4.43
2022-09-16T16:13:44.209Z,2.87
2022-09-16T16:16:14.405Z,3.20
2022-09-16T16:18:45.109Z,3.13
2022-09-16T16:21:15.671Z,2.93
2022-09-16T16:23:43.796Z,2.70
2022-09-16T16:26:12.479Z,3.63
2022-09-16T16:28:40.261Z,3.07
2022-09-16T16:31:13.520Z,3.13
2022-09-16T16:33:44.984Z,3.30
2022-09-16T16:36:14.025Z,2.60
2022-09-16T16:38:41.905Z,2.83
2022-09-16T16:41:12.027Z,2.10
2022-09-16T16:43:39.931Z,2.10
2022-09-16T16:46:07.974Z,2.00
2022-09-16T16:48:35.794Z,2.70
2022-09-16T16:51:07.673Z,2.47
2022-09-16T16:53:35.828Z,2.70
2022-09-16T16:56:05.589Z,2.37
2022-09-16T16:58:35.900Z,2.30
2022-09-16T17:01:11.676Z,2.20
2022-09-16T17:03:39.846Z,2.60
2022-09-16T17:06:09.761Z,3.23
2022-09-16T17:08:37.764Z,2.80
2022-09-16T17:11:09.947Z,2.17
2022-09-16T17:13:37.799Z,2.53
2022-09-16T17:16:06.355Z,2.57
2022-09-16T17:18:35.336Z,2.60
2022-09-16T17:21:04.548Z,2.53
2022-09-16T17:23:34.220Z,2.50
2022-09-16T17:26:02.499Z,2.90
2022-09-16T17:28:30.885Z,2.43
2022-09-16T17:30:58.970Z,2.67
2022-09-16T17:33:27.071Z,2.40
2022-09-16T17:36:02.662Z,2.60
2022-09-16T17:38:30.644Z,2.87
2022-09-16T17:41:03.990Z,3.57
2022-09-16T17:43:32.883Z,2.60
2022-09-16T17:46:01.262Z,2.93
2022-09-16T17:48:29.974Z,3.20
2022-09-16T17:50:58.286Z,3.17
2022-09-16T17:53:26.890Z,3.73
2022-09-16T17:56:04.864Z,3.30
2022-09-16T17:58:33.150Z,3.17
2022-09-16T18:01:08.633Z,3.37
2022-09-16T18:03:36.649Z,2.97
2022-09-16T18:06:06.513Z,3.73
2022-09-16T18:08:34.283Z,3.67
2022-09-16T18:11:02.088Z,3.30
2022-09-16T18:13:31.352Z,3.33
2022-09-16T18:16:04.257Z,3.50
2022-09-16T18:18:32.677Z,4.80
2022-09-16T18:21:00.955Z,4.30
2022-09-16T18:23:28.775Z,2.90
2022-09-16T18:25:56.766Z,4.23
2022-09-16T18:28:24.956Z,3.53
2022-09-16T18:31:03.646Z,3.53
2022-09-16T18:33:31.670Z,3.70
2022-09-16T18:36:00.757Z,2.90
2022-09-16T18:38:28.880Z,3.00
2022-09-16T18:41:15.428Z,2.57
2022-09-16T18:43:45.209Z,2.47
2022-09-16T18:46:16.107Z,2.63
2022-09-16T18:48:45.938Z,2.83
2022-09-16T18:51:18.142Z,2.50
2022-09-16T18:53:46.597Z,2.30
2022-09-16T18:56:15.504Z,2.33
2022-09-16T18:58:54.382Z,2.47
2022-09-16T19:01:35.115Z,2.17
2022-09-16T19:04:05.022Z,2.10
2022-09-16T19:06:34.738Z,2.10
2022-09-16T19:09:05.473Z,2.03
2022-09-16T19:11:34.046Z,2.50
2022-09-16T19:14:02.088Z,2.53
2022-09-16T19:16:30.135Z,2.50
2022-09-16T19:19:00.825Z,2.50
2022-09-16T19:21:29.075Z,3.17
2022-09-16T19:23:58.745Z,2.83
2022-09-16T19:26:27.390Z,3.00
2022-09-16T19:28:55.559Z,2.33
2022-09-16T19:31:23.493Z,2.50
2022-09-16T19:33:51.552Z,2.13
2022-09-16T19:36:22.961Z,2.40
2022-09-16T19:38:52.172Z,2.50
2022-09-16T19:41:21.745Z,3.20
2022-09-16T19:43:53.718Z,3.57
2022-09-16T19:46:21.759Z,2.13
2022-09-16T19:48:50.916Z,1.90
2022-09-16T19:51:22.584Z,2.20
2022-09-16T19:53:51.329Z,2.07
2022-09-16T19:56:22.157Z,2.67
2022-09-16T19:58:51.250Z,3.93
2022-09-16T20:01:21.180Z,2.90
2022-09-16T20:03:50.606Z,2.57
2022-09-16T20:06:21.170Z,2.57
2022-09-16T20:08:53.424Z,2.30
2022-09-16T20:11:23.097Z,2.27
2022-09-16T20:13:52.106Z,2.23
2022-09-16T20:16:21.695Z,2.20
2022-09-16T20:18:49.820Z,2.00
2022-09-16T20:21:21.226Z,1.83
2022-09-16T20:23:49.362Z,1.80
2022-09-16T20:26:19.718Z,1.40
2022-09-16T20:28:50.104Z,2.07
2022-09-16T20:31:20.520Z,2.10
2022-09-16T20:33:48.581Z,1.87
2022-09-16T20:36:18.129Z,1.53
2022-09-16T20:38:48.086Z,2.50
2022-09-16T20:41:17.862Z,2.13
2022-09-16T20:43:46.425Z,2.57
2022-09-16T20:46:16.216Z,1.80
2022-09-16T20:48:44.954Z,2.27
2022-09-16T20:51:14.621Z,2.00
2022-09-16T20:53:43.089Z,2.00
2022-09-16T20:56:14.190Z,1.80
2022-09-16T20:58:42.197Z,1.97
2022-09-16T21:01:12.499Z,2.17
2022-09-16T21:03:40.559Z,2.20
2022-09-16T21:06:10.614Z,2.10
2022-09-16T21:08:38.719Z,1.97
2022-09-16T21:11:07.564Z,1.53
2022-09-16T21:13:36.689Z,1.50
2022-09-16T21:16:04.972Z,1.63
2022-09-16T21:18:32.937Z,1.50
2022-09-16T21:21:02.830Z,1.87
2022-09-16T21:23:30.724Z,1.70
2022-09-16T21:26:03.033Z,1.47
2022-09-16T21:28:31.721Z,1.97
2022-09-16T21:31:02.532Z,2.10
2022-09-16T21:33:31.610Z,2.20
2022-09-16T21:35:59.795Z,1.67
2022-09-16T21:38:28.980Z,2.30
2022-09-16T21:40:57.814Z,2.03
2022-09-16T21:43:28.117Z,3.23
2022-09-16T21:45:55.974Z,2.10
2022-09-16T21:48:27.243Z,2.20
2022-09-16T21:51:01.687Z,1.90
2022-09-16T21:53:30.913Z,1.60
2022-09-16T21:56:01.957Z,1.70
2022-09-16T21:58:30.021Z,2.30
2022-09-16T22:01:07.625Z,1.80
2022-09-16T22:03:37.456Z,1.57
2022-09-16T22:06:06.954Z,1.60
2022-09-16T22:08:34.786Z,1.83
2022-09-16T22:11:03.230Z,2.13
2022-09-16T22:13:31.722Z,2.37
2022-09-16T22:16:00.244Z,1.60
2022-09-16T22:18:30.046Z,1.53
2022-09-16T22:21:03.366Z,1.87
2022-09-16T22:23:31.140Z,1.50
2022-09-16T22:25:58.922Z,1.60
2022-09-16T22:28:26.687Z,1.40
2022-09-16T22:30:54.557Z,1.70
2022-09-16T22:33:22.335Z,1.60
2022-09-16T22:35:50.075Z,1.57
2022-09-16T22:38:19.144Z,1.67
2022-09-16T22:40:46.926Z,1.83
2022-09-16T22:43:14.666Z,2.20
2022-09-16T22:45:42.419Z,2.00
2022-09-16T22:48:10.146Z,1.80
2022-09-16T22:50:37.866Z,1.30
2022-09-16T22:53:05.617Z,1.03
2022-09-16T22:55:34.711Z,1.37
2022-09-16T22:58:02.447Z,1.23
2022-09-16T23:00:30.196Z,1.30
2022-09-16T23:02:58.209Z,1.37
2022-09-16T23:05:25.940Z,1.23
2022-09-16T23:07:54.018Z,1.00
2022-09-16T23:10:21.752Z,1.40
2022-09-16T23:12:51.457Z,1.07
2022-09-16T23:15:19.692Z,1.10
2022-09-16T23:17:47.408Z,1.20
2022-09-16T23:20:15.268Z,1.40
2022-09-16T23:22:43.011Z,1.27
2022-09-16T23:25:10.769Z,1.37
2022-09-16T23:27:39.370Z,1.57
2022-09-16T23:30:09.914Z,1.30
2022-09-16T23:32:37.658Z,1.27
2022-09-16T23:35:05.737Z,1.43
2022-09-16T23:37:33.494Z,1.50
2022-09-16T23:40:02.005Z,1.57
2022-09-16T23:42:30.040Z,0.87
2022-09-16T23:44:58.184Z,1.23
2022-09-16T23:47:27.255Z,1.30
2022-09-16T23:49:55.016Z,1.33
2022-09-16T23:52:22.734Z,1.17
2022-09-16T23:54:51.059Z,1.10
2022-09-16T23:57:18.812Z,1.23
2022-09-16T23:59:46.551Z,1.30
